Ar Rutbah, Iraq
Current Conditions -  °F | °C
As of 6:55 AM on Monday 26 Jan 2015 (Local Time) from KQAJ Reporting Station
Haze Haze  
Wind Chill:   Ceiling: Unl
Heat Index:   Visibility: 2mi
Dew Point:   Wind: 3mph
Humidity: 95%   Direction: 80°E
Pressure: 30.23"   Gusts: NA
Location:  33.04°N, 40.3°E
Report Text: KQAJ 260355Z 08003KT 3200 BR FEW001 SCT180 08/08 A3023 RMK VIS N 2400 SLP236 T00840077
Loading
Personal Weather Stations






























Interactive Weather Map New forecast layout! Learn more

10-Day Weather Forecast

Advertisements
Track Severe Weather on mobile